sensor_id;sensor_type;location;lat;lon;timestamp;P1;durP1;ratioP1;P2;durP2;ratioP2
18899;SDS011;9582;52.018;6.306;2022-10-16T00:01:15;7.43;;;4.57;;
18899;SDS011;9582;52.018;6.306;2022-10-16T00:03:43;8.37;;;4.70;;
18899;SDS011;9582;52.018;6.306;2022-10-16T00:06:12;6.40;;;4.35;;
18899;SDS011;9582;52.018;6.306;2022-10-16T00:08:42;9.93;;;4.63;;
18899;SDS011;9582;52.018;6.306;2022-10-16T00:11:10;8.30;;;4.70;;
18899;SDS011;9582;52.018;6.306;2022-10-16T00:13:40;8.02;;;4.60;;
18899;SDS011;9582;52.018;6.306;2022-10-16T00:16:12;12.13;;;5.10;;
18899;SDS011;9582;52.018;6.306;2022-10-16T00:18:40;11.20;;;5.07;;
18899;SDS011;9582;52.018;6.306;2022-10-16T00:21:08;10.43;;;5.30;;
18899;SDS011;9582;52.018;6.306;2022-10-16T00:23:36;6.97;;;4.80;;
18899;SDS011;9582;52.018;6.306;2022-10-16T00:26:05;10.05;;;5.13;;
18899;SDS011;9582;52.018;6.306;2022-10-16T00:28:34;9.50;;;5.43;;
18899;SDS011;9582;52.018;6.306;2022-10-16T00:31:02;8.60;;;4.97;;
18899;SDS011;9582;52.018;6.306;2022-10-16T00:33:29;8.35;;;4.75;;
18899;SDS011;9582;52.018;6.306;2022-10-16T00:35:57;10.23;;;5.20;;
18899;SDS011;9582;52.018;6.306;2022-10-16T00:38:24;11.07;;;5.57;;
18899;SDS011;9582;52.018;6.306;2022-10-16T00:40:51;9.80;;;5.17;;
18899;SDS011;9582;52.018;6.306;2022-10-16T00:43:33;10.03;;;6.30;;
18899;SDS011;9582;52.018;6.306;2022-10-16T00:46:09;11.57;;;6.63;;
18899;SDS011;9582;52.018;6.306;2022-10-16T00:48:40;8.45;;;6.00;;
18899;SDS011;9582;52.018;6.306;2022-10-16T00:51:08;8.40;;;5.50;;
18899;SDS011;9582;52.018;6.306;2022-10-16T00:53:36;13.97;;;6.20;;
18899;SDS011;9582;52.018;6.306;2022-10-16T00:56:03;11.43;;;6.27;;
18899;SDS011;9582;52.018;6.306;2022-10-16T00:58:30;7.57;;;5.40;;
18899;SDS011;9582;52.018;6.306;2022-10-16T01:00:58;6.57;;;5.57;;
18899;SDS011;9582;52.018;6.306;2022-10-16T01:03:27;9.63;;;5.40;;
18899;SDS011;9582;52.018;6.306;2022-10-16T01:05:58;9.03;;;5.90;;
18899;SDS011;9582;52.018;6.306;2022-10-16T01:08:37;13.00;;;5.73;;
18899;SDS011;9582;52.018;6.306;2022-10-16T01:11:12;8.83;;;6.07;;
18899;SDS011;9582;52.018;6.306;2022-10-16T01:13:49;12.73;;;5.87;;
18899;SDS011;9582;52.018;6.306;2022-10-16T01:16:29;9.67;;;5.67;;
18899;SDS011;9582;52.018;6.306;2022-10-16T01:19:02;8.57;;;5.95;;
18899;SDS011;9582;52.018;6.306;2022-10-16T01:21:36;7.37;;;6.10;;
18899;SDS011;9582;52.018;6.306;2022-10-16T01:24:11;10.53;;;6.60;;
18899;SDS011;9582;52.018;6.306;2022-10-16T01:27:04;7.63;;;6.57;;
18899;SDS011;9582;52.018;6.306;2022-10-16T01:29:34;9.70;;;6.07;;
18899;SDS011;9582;52.018;6.306;2022-10-16T01:32:07;10.03;;;6.53;;
18899;SDS011;9582;52.018;6.306;2022-10-16T01:34:42;8.47;;;6.40;;
18899;SDS011;9582;52.018;6.306;2022-10-16T01:37:14;8.50;;;6.57;;
18899;SDS011;9582;52.018;6.306;2022-10-16T01:39:45;8.27;;;6.30;;
18899;SDS011;9582;52.018;6.306;2022-10-16T01:42:16;9.60;;;7.10;;
18899;SDS011;9582;52.018;6.306;2022-10-16T01:44:47;9.80;;;6.57;;
18899;SDS011;9582;52.018;6.306;2022-10-16T01:47:16;9.60;;;6.60;;
18899;SDS011;9582;52.018;6.306;2022-10-16T01:49:45;11.27;;;7.13;;
18899;SDS011;9582;52.018;6.306;2022-10-16T01:52:17;7.83;;;6.30;;
18899;SDS011;9582;52.018;6.306;2022-10-16T01:54:49;9.10;;;6.50;;
18899;SDS011;9582;52.018;6.306;2022-10-16T01:57:23;8.03;;;6.30;;
18899;SDS011;9582;52.018;6.306;2022-10-16T01:59:52;10.67;;;6.33;;
18899;SDS011;9582;52.018;6.306;2022-10-16T02:02:22;7.77;;;5.90;;
18899;SDS011;9582;52.018;6.306;2022-10-16T02:04:53;10.20;;;5.67;;
18899;SDS011;9582;52.018;6.306;2022-10-16T02:07:29;8.77;;;5.87;;
18899;SDS011;9582;52.018;6.306;2022-10-16T02:09:55;6.37;;;5.37;;
18899;SDS011;9582;52.018;6.306;2022-10-16T02:12:25;6.87;;;5.27;;
18899;SDS011;9582;52.018;6.306;2022-10-16T02:14:53;9.53;;;5.40;;
18899;SDS011;9582;52.018;6.306;2022-10-16T02:17:20;8.35;;;4.97;;
18899;SDS011;9582;52.018;6.306;2022-10-16T02:19:48;7.53;;;5.50;;
18899;SDS011;9582;52.018;6.306;2022-10-16T02:22:19;8.57;;;5.50;;
18899;SDS011;9582;52.018;6.306;2022-10-16T02:24:52;7.87;;;5.23;;
18899;SDS011;9582;52.018;6.306;2022-10-16T02:27:24;7.57;;;5.20;;
18899;SDS011;9582;52.018;6.306;2022-10-16T02:30:00;6.03;;;4.63;;
18899;SDS011;9582;52.018;6.306;2022-10-16T02:32:33;7.53;;;4.97;;
18899;SDS011;9582;52.018;6.306;2022-10-16T02:35:03;7.13;;;4.75;;
18899;SDS011;9582;52.018;6.306;2022-10-16T02:37:31;6.50;;;4.43;;
18899;SDS011;9582;52.018;6.306;2022-10-16T02:39:58;6.85;;;4.13;;
18899;SDS011;9582;52.018;6.306;2022-10-16T02:42:31;5.93;;;4.20;;
18899;SDS011;9582;52.018;6.306;2022-10-16T02:44:59;6.10;;;4.20;;
18899;SDS011;9582;52.018;6.306;2022-10-16T02:47:26;6.20;;;4.63;;
18899;SDS011;9582;52.018;6.306;2022-10-16T02:49:52;5.87;;;4.53;;
18899;SDS011;9582;52.018;6.306;2022-10-16T02:52:19;5.87;;;4.23;;
18899;SDS011;9582;52.018;6.306;2022-10-16T02:54:46;4.38;;;3.92;;
18899;SDS011;9582;52.018;6.306;2022-10-16T02:57:12;5.37;;;4.23;;
18899;SDS011;9582;52.018;6.306;2022-10-16T02:59:40;5.47;;;3.80;;
18899;SDS011;9582;52.018;6.306;2022-10-16T03:02:07;5.03;;;3.70;;
18899;SDS011;9582;52.018;6.306;2022-10-16T03:04:33;4.97;;;3.28;;
18899;SDS011;9582;52.018;6.306;2022-10-16T03:07:00;3.78;;;3.47;;
18899;SDS011;9582;52.018;6.306;2022-10-16T03:09:26;6.65;;;3.65;;
18899;SDS011;9582;52.018;6.306;2022-10-16T03:11:53;3.97;;;3.55;;
18899;SDS011;9582;52.018;6.306;2022-10-16T03:14:20;5.55;;;3.42;;
18899;SDS011;9582;52.018;6.306;2022-10-16T03:16:48;4.90;;;3.25;;
18899;SDS011;9582;52.018;6.306;2022-10-16T03:19:15;6.95;;;3.70;;
18899;SDS011;9582;52.018;6.306;2022-10-16T03:21:42;4.53;;;3.70;;
18899;SDS011;9582;52.018;6.306;2022-10-16T03:24:09;4.53;;;3.83;;
18899;SDS011;9582;52.018;6.306;2022-10-16T03:26:36;5.53;;;3.37;;
18899;SDS011;9582;52.018;6.306;2022-10-16T03:29:03;6.55;;;3.85;;
18899;SDS011;9582;52.018;6.306;2022-10-16T03:31:31;4.80;;;3.58;;
18899;SDS011;9582;52.018;6.306;2022-10-16T03:34:00;3.78;;;3.40;;
18899;SDS011;9582;52.018;6.306;2022-10-16T03:36:26;4.25;;;3.17;;
18899;SDS011;9582;52.018;6.306;2022-10-16T03:38:53;6.83;;;3.20;;
18899;SDS011;9582;52.018;6.306;2022-10-16T03:41:20;5.50;;;3.78;;
18899;SDS011;9582;52.018;6.306;2022-10-16T03:43:46;6.35;;;3.28;;
18899;SDS011;9582;52.018;6.306;2022-10-16T03:46:13;4.80;;;3.80;;
18899;SDS011;9582;52.018;6.306;2022-10-16T03:48:40;5.70;;;3.40;;
18899;SDS011;9582;52.018;6.306;2022-10-16T03:51:08;5.88;;;3.80;;
18899;SDS011;9582;52.018;6.306;2022-10-16T03:53:34;5.75;;;3.50;;
18899;SDS011;9582;52.018;6.306;2022-10-16T03:56:01;5.37;;;3.40;;
18899;SDS011;9582;52.018;6.306;2022-10-16T03:58:27;6.97;;;4.22;;
18899;SDS011;9582;52.018;6.306;2022-10-16T04:00:54;6.00;;;3.75;;
18899;SDS011;9582;52.018;6.306;2022-10-16T04:03:21;5.25;;;3.70;;
18899;SDS011;9582;52.018;6.306;2022-10-16T04:05:48;4.40;;;3.60;;
18899;SDS011;9582;52.018;6.306;2022-10-16T04:08:16;6.37;;;3.53;;
18899;SDS011;9582;52.018;6.306;2022-10-16T04:10:43;4.32;;;3.90;;
18899;SDS011;9582;52.018;6.306;2022-10-16T04:13:10;6.10;;;4.20;;
18899;SDS011;9582;52.018;6.306;2022-10-16T04:15:36;4.50;;;3.80;;
18899;SDS011;9582;52.018;6.306;2022-10-16T04:18:03;7.03;;;3.67;;
18899;SDS011;9582;52.018;6.306;2022-10-16T04:20:30;3.97;;;3.57;;
18899;SDS011;9582;52.018;6.306;2022-10-16T04:22:56;4.65;;;3.70;;
18899;SDS011;9582;52.018;6.306;2022-10-16T04:25:24;4.63;;;3.80;;
18899;SDS011;9582;52.018;6.306;2022-10-16T04:27:52;3.83;;;3.38;;
18899;SDS011;9582;52.018;6.306;2022-10-16T04:30:19;4.93;;;3.83;;
18899;SDS011;9582;52.018;6.306;2022-10-16T04:32:47;4.33;;;3.60;;
18899;SDS011;9582;52.018;6.306;2022-10-16T04:35:14;4.27;;;3.30;;
18899;SDS011;9582;52.018;6.306;2022-10-16T04:37:41;6.73;;;3.90;;
18899;SDS011;9582;52.018;6.306;2022-10-16T04:40:07;7.35;;;3.50;;
18899;SDS011;9582;52.018;6.306;2022-10-16T04:42:36;5.00;;;3.83;;
18899;SDS011;9582;52.018;6.306;2022-10-16T04:45:03;3.80;;;3.43;;
18899;SDS011;9582;52.018;6.306;2022-10-16T04:47:30;4.57;;;3.60;;
18899;SDS011;9582;52.018;6.306;2022-10-16T04:49:56;4.60;;;3.17;;
18899;SDS011;9582;52.018;6.306;2022-10-16T04:52:24;5.37;;;3.90;;
18899;SDS011;9582;52.018;6.306;2022-10-16T04:54:51;9.40;;;4.27;;
18899;SDS011;9582;52.018;6.306;2022-10-16T04:57:19;3.60;;;3.03;;
18899;SDS011;9582;52.018;6.306;2022-10-16T04:59:46;5.57;;;3.30;;
18899;SDS011;9582;52.018;6.306;2022-10-16T05:02:13;5.33;;;3.60;;
18899;SDS011;9582;52.018;6.306;2022-10-16T05:04:39;6.50;;;3.23;;
18899;SDS011;9582;52.018;6.306;2022-10-16T05:07:06;5.72;;;3.15;;
18899;SDS011;9582;52.018;6.306;2022-10-16T05:09:33;3.87;;;3.30;;
18899;SDS011;9582;52.018;6.306;2022-10-16T05:11:59;5.57;;;3.13;;
18899;SDS011;9582;52.018;6.306;2022-10-16T05:14:26;4.07;;;3.17;;
18899;SDS011;9582;52.018;6.306;2022-10-16T05:16:53;5.40;;;3.45;;
18899;SDS011;9582;52.018;6.306;2022-10-16T05:19:20;4.38;;;3.30;;
18899;SDS011;9582;52.018;6.306;2022-10-16T05:21:48;4.20;;;3.60;;
18899;SDS011;9582;52.018;6.306;2022-10-16T05:24:14;3.75;;;3.25;;
18899;SDS011;9582;52.018;6.306;2022-10-16T05:26:41;4.07;;;3.35;;
18899;SDS011;9582;52.018;6.306;2022-10-16T05:29:07;5.05;;;3.40;;
18899;SDS011;9582;52.018;6.306;2022-10-16T05:31:35;5.07;;;3.73;;
18899;SDS011;9582;52.018;6.306;2022-10-16T05:34:02;6.07;;;3.90;;
18899;SDS011;9582;52.018;6.306;2022-10-16T05:36:29;4.17;;;3.70;;
18899;SDS011;9582;52.018;6.306;2022-10-16T05:38:56;4.35;;;3.25;;
18899;SDS011;9582;52.018;6.306;2022-10-16T05:41:22;5.60;;;4.00;;
18899;SDS011;9582;52.018;6.306;2022-10-16T05:43:50;5.43;;;3.90;;
18899;SDS011;9582;52.018;6.306;2022-10-16T05:46:17;5.27;;;3.93;;
18899;SDS011;9582;52.018;6.306;2022-10-16T05:48:44;5.17;;;3.90;;
18899;SDS011;9582;52.018;6.306;2022-10-16T05:51:12;3.70;;;3.40;;
18899;SDS011;9582;52.018;6.306;2022-10-16T05:53:40;4.05;;;3.20;;
18899;SDS011;9582;52.018;6.306;2022-10-16T05:56:09;6.33;;;3.53;;
18899;SDS011;9582;52.018;6.306;2022-10-16T05:58:38;4.47;;;3.67;;
18899;SDS011;9582;52.018;6.306;2022-10-16T06:01:06;6.87;;;3.87;;
18899;SDS011;9582;52.018;6.306;2022-10-16T06:03:35;4.27;;;3.63;;
18899;SDS011;9582;52.018;6.306;2022-10-16T06:06:07;5.30;;;3.65;;
18899;SDS011;9582;52.018;6.306;2022-10-16T06:08:35;5.37;;;3.33;;
18899;SDS011;9582;52.018;6.306;2022-10-16T06:11:02;7.00;;;4.00;;
18899;SDS011;9582;52.018;6.306;2022-10-16T06:13:31;7.27;;;3.97;;
18899;SDS011;9582;52.018;6.306;2022-10-16T06:15:59;4.95;;;3.78;;
18899;SDS011;9582;52.018;6.306;2022-10-16T06:18:27;5.07;;;3.63;;
18899;SDS011;9582;52.018;6.306;2022-10-16T06:20:55;5.10;;;4.60;;
18899;SDS011;9582;52.018;6.306;2022-10-16T06:23:22;4.90;;;4.40;;
18899;SDS011;9582;52.018;6.306;2022-10-16T06:25:51;4.80;;;3.57;;
18899;SDS011;9582;52.018;6.306;2022-10-16T06:28:17;5.77;;;3.70;;
18899;SDS011;9582;52.018;6.306;2022-10-16T06:30:44;6.20;;;4.10;;
18899;SDS011;9582;52.018;6.306;2022-10-16T06:33:11;5.30;;;4.07;;
18899;SDS011;9582;52.018;6.306;2022-10-16T06:35:38;4.97;;;3.70;;
18899;SDS011;9582;52.018;6.306;2022-10-16T06:38:04;4.70;;;3.70;;
18899;SDS011;9582;52.018;6.306;2022-10-16T06:40:31;5.43;;;3.90;;
18899;SDS011;9582;52.018;6.306;2022-10-16T06:42:59;5.70;;;4.10;;
18899;SDS011;9582;52.018;6.306;2022-10-16T06:45:26;6.25;;;4.13;;
18899;SDS011;9582;52.018;6.306;2022-10-16T06:47:52;7.45;;;4.00;;
18899;SDS011;9582;52.018;6.306;2022-10-16T06:50:19;12.82;;;4.45;;
18899;SDS011;9582;52.018;6.306;2022-10-16T06:52:45;6.37;;;4.07;;
18899;SDS011;9582;52.018;6.306;2022-10-16T06:55:12;7.00;;;3.90;;
18899;SDS011;9582;52.018;6.306;2022-10-16T06:57:39;6.93;;;4.13;;
18899;SDS011;9582;52.018;6.306;2022-10-16T07:00:08;5.68;;;3.08;;
18899;SDS011;9582;52.018;6.306;2022-10-16T07:02:35;6.25;;;3.47;;
18899;SDS011;9582;52.018;6.306;2022-10-16T07:05:01;6.75;;;3.22;;
18899;SDS011;9582;52.018;6.306;2022-10-16T07:07:29;3.70;;;2.77;;
18899;SDS011;9582;52.018;6.306;2022-10-16T07:09:56;5.32;;;3.20;;
18899;SDS011;9582;52.018;6.306;2022-10-16T07:12:23;3.88;;;2.78;;
18899;SDS011;9582;52.018;6.306;2022-10-16T07:14:49;7.30;;;2.97;;
18899;SDS011;9582;52.018;6.306;2022-10-16T07:17:21;3.13;;;2.70;;
18899;SDS011;9582;52.018;6.306;2022-10-16T07:19:47;4.93;;;2.80;;
18899;SDS011;9582;52.018;6.306;2022-10-16T07:22:14;4.18;;;2.80;;
18899;SDS011;9582;52.018;6.306;2022-10-16T07:24:41;5.47;;;2.47;;
18899;SDS011;9582;52.018;6.306;2022-10-16T07:27:09;3.75;;;3.05;;
18899;SDS011;9582;52.018;6.306;2022-10-16T07:29:37;3.72;;;2.22;;
18899;SDS011;9582;52.018;6.306;2022-10-16T07:32:04;4.78;;;2.08;;
18899;SDS011;9582;52.018;6.306;2022-10-16T07:34:32;4.25;;;2.60;;
18899;SDS011;9582;52.018;6.306;2022-10-16T07:37:01;2.85;;;2.45;;
18899;SDS011;9582;52.018;6.306;2022-10-16T07:39:28;4.40;;;2.65;;
18899;SDS011;9582;52.018;6.306;2022-10-16T07:41:54;3.10;;;1.85;;
18899;SDS011;9582;52.018;6.306;2022-10-16T07:44:21;5.03;;;2.10;;
18899;SDS011;9582;52.018;6.306;2022-10-16T07:46:50;5.05;;;2.15;;
18899;SDS011;9582;52.018;6.306;2022-10-16T07:49:17;2.28;;;1.90;;
18899;SDS011;9582;52.018;6.306;2022-10-16T07:51:45;3.30;;;2.22;;
18899;SDS011;9582;52.018;6.306;2022-10-16T07:54:12;4.20;;;2.55;;
18899;SDS011;9582;52.018;6.306;2022-10-16T07:56:40;4.50;;;2.40;;
18899;SDS011;9582;52.018;6.306;2022-10-16T07:59:06;2.92;;;1.95;;
18899;SDS011;9582;52.018;6.306;2022-10-16T08:01:38;4.32;;;1.88;;
18899;SDS011;9582;52.018;6.306;2022-10-16T08:04:04;2.55;;;2.05;;
18899;SDS011;9582;52.018;6.306;2022-10-16T08:06:34;3.50;;;2.00;;
18899;SDS011;9582;52.018;6.306;2022-10-16T08:09:05;3.55;;;2.60;;
18899;SDS011;9582;52.018;6.306;2022-10-16T08:11:32;5.28;;;2.15;;
18899;SDS011;9582;52.018;6.306;2022-10-16T08:14:00;4.28;;;2.08;;
18899;SDS011;9582;52.018;6.306;2022-10-16T08:16:27;7.03;;;2.70;;
18899;SDS011;9582;52.018;6.306;2022-10-16T08:18:54;3.17;;;2.30;;
18899;SDS011;9582;52.018;6.306;2022-10-16T08:21:21;6.60;;;2.50;;
18899;SDS011;9582;52.018;6.306;2022-10-16T08:23:49;3.92;;;2.10;;
18899;SDS011;9582;52.018;6.306;2022-10-16T08:26:17;6.35;;;2.45;;
18899;SDS011;9582;52.018;6.306;2022-10-16T08:28:44;3.50;;;2.42;;
18899;SDS011;9582;52.018;6.306;2022-10-16T08:31:11;3.85;;;2.55;;
18899;SDS011;9582;52.018;6.306;2022-10-16T08:33:40;4.20;;;2.72;;
18899;SDS011;9582;52.018;6.306;2022-10-16T08:36:10;4.10;;;2.50;;
18899;SDS011;9582;52.018;6.306;2022-10-16T08:38:37;4.07;;;2.60;;
18899;SDS011;9582;52.018;6.306;2022-10-16T08:41:16;6.30;;;2.53;;
18899;SDS011;9582;52.018;6.306;2022-10-16T08:44:17;3.47;;;2.50;;
18899;SDS011;9582;52.018;6.306;2022-10-16T08:46:56;5.35;;;2.42;;
18899;SDS011;9582;52.018;6.306;2022-10-16T08:49:38;5.93;;;2.70;;
18899;SDS011;9582;52.018;6.306;2022-10-16T08:52:10;5.15;;;2.45;;
18899;SDS011;9582;52.018;6.306;2022-10-16T08:54:41;4.32;;;2.97;;
18899;SDS011;9582;52.018;6.306;2022-10-16T08:57:13;4.80;;;2.92;;
18899;SDS011;9582;52.018;6.306;2022-10-16T08:59:42;5.03;;;2.83;;
18899;SDS011;9582;52.018;6.306;2022-10-16T09:02:19;5.70;;;2.53;;
18899;SDS011;9582;52.018;6.306;2022-10-16T09:04:55;3.90;;;2.58;;
18899;SDS011;9582;52.018;6.306;2022-10-16T09:07:32;5.10;;;2.53;;
18899;SDS011;9582;52.018;6.306;2022-10-16T09:10:14;2.67;;;2.30;;
18899;SDS011;9582;52.018;6.306;2022-10-16T09:12:54;4.78;;;2.42;;
18899;SDS011;9582;52.018;6.306;2022-10-16T09:15:29;4.68;;;2.47;;
18899;SDS011;9582;52.018;6.306;2022-10-16T09:18:02;2.72;;;2.10;;
18899;SDS011;9582;52.018;6.306;2022-10-16T09:20:40;3.80;;;2.25;;
18899;SDS011;9582;52.018;6.306;2022-10-16T09:23:15;4.90;;;2.30;;
18899;SDS011;9582;52.018;6.306;2022-10-16T09:25:44;4.78;;;2.35;;
18899;SDS011;9582;52.018;6.306;2022-10-16T09:28:15;3.88;;;2.33;;
18899;SDS011;9582;52.018;6.306;2022-10-16T09:30:43;4.00;;;2.10;;
18899;SDS011;9582;52.018;6.306;2022-10-16T09:33:11;5.35;;;2.40;;
18899;SDS011;9582;52.018;6.306;2022-10-16T09:35:40;3.80;;;2.10;;
18899;SDS011;9582;52.018;6.306;2022-10-16T09:38:08;4.32;;;2.45;;
18899;SDS011;9582;52.018;6.306;2022-10-16T09:40:46;4.38;;;2.47;;
18899;SDS011;9582;52.018;6.306;2022-10-16T09:43:18;3.33;;;2.20;;
18899;SDS011;9582;52.018;6.306;2022-10-16T09:45:55;5.07;;;2.50;;
18899;SDS011;9582;52.018;6.306;2022-10-16T09:48:23;2.35;;;1.67;;
18899;SDS011;9582;52.018;6.306;2022-10-16T09:50:56;5.35;;;2.10;;
18899;SDS011;9582;52.018;6.306;2022-10-16T09:53:23;4.25;;;2.20;;
18899;SDS011;9582;52.018;6.306;2022-10-16T09:55:53;3.65;;;1.75;;
18899;SDS011;9582;52.018;6.306;2022-10-16T09:58:22;3.13;;;2.15;;
18899;SDS011;9582;52.018;6.306;2022-10-16T10:00:50;3.30;;;1.80;;
18899;SDS011;9582;52.018;6.306;2022-10-16T10:06:17;6.80;;;1.58;;
18899;SDS011;9582;52.018;6.306;2022-10-16T10:08:56;5.95;;;1.77;;
18899;SDS011;9582;52.018;6.306;2022-10-16T10:11:38;5.80;;;1.52;;
18899;SDS011;9582;52.018;6.306;2022-10-16T10:14:08;4.95;;;1.88;;
18899;SDS011;9582;52.018;6.306;2022-10-16T10:16:42;5.05;;;1.80;;
18899;SDS011;9582;52.018;6.306;2022-10-16T10:19:12;11.13;;;1.92;;
18899;SDS011;9582;52.018;6.306;2022-10-16T10:21:40;5.97;;;1.85;;
18899;SDS011;9582;52.018;6.306;2022-10-16T10:24:09;8.52;;;1.90;;
18899;SDS011;9582;52.018;6.306;2022-10-16T10:26:37;6.10;;;1.65;;
18899;SDS011;9582;52.018;6.306;2022-10-16T10:29:10;8.60;;;1.77;;
18899;SDS011;9582;52.018;6.306;2022-10-16T10:31:43;9.25;;;1.80;;
18899;SDS011;9582;52.018;6.306;2022-10-16T10:34:32;9.32;;;1.88;;
18899;SDS011;9582;52.018;6.306;2022-10-16T10:37:09;6.20;;;1.48;;
18899;SDS011;9582;52.018;6.306;2022-10-16T10:39:50;5.68;;;1.65;;
18899;SDS011;9582;52.018;6.306;2022-10-16T10:42:24;6.93;;;2.22;;
18899;SDS011;9582;52.018;6.306;2022-10-16T10:45:08;10.05;;;1.95;;
18899;SDS011;9582;52.018;6.306;2022-10-16T10:48:11;5.43;;;1.42;;
18899;SDS011;9582;52.018;6.306;2022-10-16T10:50:48;4.25;;;1.33;;
18899;SDS011;9582;52.018;6.306;2022-10-16T10:53:19;8.55;;;1.73;;
18899;SDS011;9582;52.018;6.306;2022-10-16T10:55:53;4.85;;;1.80;;
18899;SDS011;9582;52.018;6.306;2022-10-16T10:58:32;7.28;;;1.77;;
18899;SDS011;9582;52.018;6.306;2022-10-16T11:01:11;6.35;;;1.92;;
18899;SDS011;9582;52.018;6.306;2022-10-16T11:03:43;7.97;;;1.75;;
18899;SDS011;9582;52.018;6.306;2022-10-16T11:06:26;10.00;;;1.98;;
18899;SDS011;9582;52.018;6.306;2022-10-16T11:08:57;6.03;;;1.70;;
18899;SDS011;9582;52.018;6.306;2022-10-16T11:11:30;5.05;;;1.25;;
18899;SDS011;9582;52.018;6.306;2022-10-16T11:14:02;6.05;;;1.55;;
18899;SDS011;9582;52.018;6.306;2022-10-16T11:16:37;5.30;;;1.80;;
18899;SDS011;9582;52.018;6.306;2022-10-16T11:19:11;5.65;;;1.90;;
18899;SDS011;9582;52.018;6.306;2022-10-16T11:21:44;5.00;;;1.60;;
18899;SDS011;9582;52.018;6.306;2022-10-16T11:24:18;7.00;;;1.70;;
18899;SDS011;9582;52.018;6.306;2022-10-16T11:26:49;9.18;;;2.22;;
18899;SDS011;9582;52.018;6.306;2022-10-16T11:29:20;9.70;;;2.05;;
18899;SDS011;9582;52.018;6.306;2022-10-16T11:31:53;5.90;;;2.08;;
18899;SDS011;9582;52.018;6.306;2022-10-16T11:34:26;10.52;;;2.13;;
18899;SDS011;9582;52.018;6.306;2022-10-16T11:36:58;7.47;;;1.60;;
18899;SDS011;9582;52.018;6.306;2022-10-16T11:39:31;7.38;;;1.80;;
18899;SDS011;9582;52.018;6.306;2022-10-16T11:41:59;7.65;;;2.00;;
18899;SDS011;9582;52.018;6.306;2022-10-16T11:47:27;10.35;;;2.00;;
18899;SDS011;9582;52.018;6.306;2022-10-16T11:50:02;9.88;;;1.98;;
18899;SDS011;9582;52.018;6.306;2022-10-16T11:52:39;8.38;;;1.98;;
18899;SDS011;9582;52.018;6.306;2022-10-16T11:55:13;6.22;;;1.83;;
18899;SDS011;9582;52.018;6.306;2022-10-16T11:57:44;6.43;;;1.77;;
18899;SDS011;9582;52.018;6.306;2022-10-16T12:00:17;6.82;;;1.80;;
18899;SDS011;9582;52.018;6.306;2022-10-16T12:02:55;6.30;;;1.80;;
18899;SDS011;9582;52.018;6.306;2022-10-16T12:05:33;5.13;;;1.45;;
18899;SDS011;9582;52.018;6.306;2022-10-16T12:08:13;7.90;;;1.60;;
18899;SDS011;9582;52.018;6.306;2022-10-16T12:10:42;8.20;;;2.03;;
18899;SDS011;9582;52.018;6.306;2022-10-16T12:13:27;7.15;;;1.30;;
18899;SDS011;9582;52.018;6.306;2022-10-16T12:16:05;7.22;;;2.00;;
18899;SDS011;9582;52.018;6.306;2022-10-16T12:18:34;5.47;;;1.83;;
18899;SDS011;9582;52.018;6.306;2022-10-16T12:21:00;7.18;;;1.83;;
18899;SDS011;9582;52.018;6.306;2022-10-16T12:23:31;7.57;;;1.52;;
18899;SDS011;9582;52.018;6.306;2022-10-16T12:25:59;6.72;;;1.50;;
18899;SDS011;9582;52.018;6.306;2022-10-16T12:28:28;5.75;;;1.55;;
18899;SDS011;9582;52.018;6.306;2022-10-16T12:30:57;11.05;;;2.00;;
18899;SDS011;9582;52.018;6.306;2022-10-16T12:33:26;5.25;;;1.50;;
18899;SDS011;9582;52.018;6.306;2022-10-16T12:35:55;8.93;;;2.00;;
18899;SDS011;9582;52.018;6.306;2022-10-16T12:38:25;12.05;;;2.33;;
18899;SDS011;9582;52.018;6.306;2022-10-16T12:40:55;8.73;;;1.60;;
18899;SDS011;9582;52.018;6.306;2022-10-16T12:43:38;3.80;;;1.45;;
18899;SDS011;9582;52.018;6.306;2022-10-16T12:48:50;8.95;;;1.88;;
18899;SDS011;9582;52.018;6.306;2022-10-16T12:51:24;5.50;;;1.50;;
18899;SDS011;9582;52.018;6.306;2022-10-16T12:53:59;10.63;;;1.92;;
18899;SDS011;9582;52.018;6.306;2022-10-16T12:56:28;8.55;;;1.90;;
18899;SDS011;9582;52.018;6.306;2022-10-16T12:59:09;9.98;;;2.60;;
18899;SDS011;9582;52.018;6.306;2022-10-16T13:01:50;6.75;;;1.60;;
18899;SDS011;9582;52.018;6.306;2022-10-16T13:04:33;8.00;;;2.10;;
18899;SDS011;9582;52.018;6.306;2022-10-16T13:07:17;7.88;;;1.95;;
18899;SDS011;9582;52.018;6.306;2022-10-16T13:09:56;5.38;;;1.60;;
18899;SDS011;9582;52.018;6.306;2022-10-16T13:12:37;7.50;;;2.40;;
18899;SDS011;9582;52.018;6.306;2022-10-16T13:15:23;7.68;;;1.90;;
18899;SDS011;9582;52.018;6.306;2022-10-16T13:18:00;6.60;;;1.48;;
18899;SDS011;9582;52.018;6.306;2022-10-16T13:20:34;6.88;;;2.08;;
18899;SDS011;9582;52.018;6.306;2022-10-16T13:23:15;6.03;;;2.00;;
18899;SDS011;9582;52.018;6.306;2022-10-16T13:25:54;6.22;;;1.50;;
18899;SDS011;9582;52.018;6.306;2022-10-16T13:28:30;7.97;;;1.90;;
18899;SDS011;9582;52.018;6.306;2022-10-16T13:30:59;6.63;;;2.35;;
18899;SDS011;9582;52.018;6.306;2022-10-16T13:33:30;7.88;;;1.83;;
18899;SDS011;9582;52.018;6.306;2022-10-16T13:35:59;5.55;;;1.63;;
18899;SDS011;9582;52.018;6.306;2022-10-16T13:38:28;6.65;;;1.63;;
18899;SDS011;9582;52.018;6.306;2022-10-16T13:40:58;5.85;;;1.50;;
18899;SDS011;9582;52.018;6.306;2022-10-16T13:43:26;8.80;;;2.20;;
18899;SDS011;9582;52.018;6.306;2022-10-16T13:45:56;7.72;;;1.50;;
18899;SDS011;9582;52.018;6.306;2022-10-16T13:48:24;5.82;;;1.80;;
18899;SDS011;9582;52.018;6.306;2022-10-16T13:51:01;5.57;;;1.67;;
18899;SDS011;9582;52.018;6.306;2022-10-16T13:53:34;8.25;;;1.83;;
18899;SDS011;9582;52.018;6.306;2022-10-16T13:56:02;5.93;;;1.58;;
18899;SDS011;9582;52.018;6.306;2022-10-16T13:58:30;6.72;;;2.00;;
18899;SDS011;9582;52.018;6.306;2022-10-16T14:00:57;8.18;;;2.03;;
18899;SDS011;9582;52.018;6.306;2022-10-16T14:03:26;5.90;;;1.73;;
18899;SDS011;9582;52.018;6.306;2022-10-16T14:05:55;7.60;;;1.83;;
18899;SDS011;9582;52.018;6.306;2022-10-16T14:08:24;8.35;;;1.92;;
18899;SDS011;9582;52.018;6.306;2022-10-16T14:10:55;10.13;;;1.85;;
18899;SDS011;9582;52.018;6.306;2022-10-16T14:13:26;7.55;;;2.05;;
18899;SDS011;9582;52.018;6.306;2022-10-16T14:15:57;6.15;;;1.77;;
18899;SDS011;9582;52.018;6.306;2022-10-16T14:18:30;6.25;;;1.77;;
18899;SDS011;9582;52.018;6.306;2022-10-16T14:21:02;16.17;;;2.08;;
18899;SDS011;9582;52.018;6.306;2022-10-16T14:23:30;8.65;;;1.92;;
18899;SDS011;9582;52.018;6.306;2022-10-16T14:26:13;9.85;;;2.08;;
18899;SDS011;9582;52.018;6.306;2022-10-16T14:28:41;7.20;;;1.85;;
18899;SDS011;9582;52.018;6.306;2022-10-16T14:31:24;8.75;;;1.60;;
18899;SDS011;9582;52.018;6.306;2022-10-16T14:33:52;9.48;;;1.90;;
18899;SDS011;9582;52.018;6.306;2022-10-16T14:36:20;8.02;;;1.77;;
18899;SDS011;9582;52.018;6.306;2022-10-16T14:38:49;7.22;;;1.88;;
18899;SDS011;9582;52.018;6.306;2022-10-16T14:41:24;6.95;;;1.92;;
18899;SDS011;9582;52.018;6.306;2022-10-16T14:43:52;7.65;;;1.60;;
18899;SDS011;9582;52.018;6.306;2022-10-16T14:46:21;8.15;;;1.75;;
18899;SDS011;9582;52.018;6.306;2022-10-16T14:48:55;7.50;;;2.13;;
18899;SDS011;9582;52.018;6.306;2022-10-16T14:51:26;8.15;;;1.90;;
18899;SDS011;9582;52.018;6.306;2022-10-16T14:53:53;7.25;;;1.90;;
18899;SDS011;9582;52.018;6.306;2022-10-16T14:56:20;7.18;;;2.08;;
18899;SDS011;9582;52.018;6.306;2022-10-16T14:58:51;5.85;;;1.70;;
18899;SDS011;9582;52.018;6.306;2022-10-16T15:01:19;6.63;;;1.80;;
18899;SDS011;9582;52.018;6.306;2022-10-16T15:03:46;8.40;;;2.30;;
18899;SDS011;9582;52.018;6.306;2022-10-16T15:06:13;7.45;;;1.60;;
18899;SDS011;9582;52.018;6.306;2022-10-16T15:08:41;7.50;;;1.90;;
18899;SDS011;9582;52.018;6.306;2022-10-16T15:11:09;7.40;;;1.80;;
18899;SDS011;9582;52.018;6.306;2022-10-16T15:13:38;7.53;;;1.60;;
18899;SDS011;9582;52.018;6.306;2022-10-16T15:16:08;5.35;;;1.80;;
18899;SDS011;9582;52.018;6.306;2022-10-16T15:18:37;5.07;;;1.42;;
18899;SDS011;9582;52.018;6.306;2022-10-16T15:21:04;8.45;;;1.83;;
18899;SDS011;9582;52.018;6.306;2022-10-16T15:23:31;9.63;;;2.00;;
18899;SDS011;9582;52.018;6.306;2022-10-16T15:25:57;6.60;;;1.77;;
18899;SDS011;9582;52.018;6.306;2022-10-16T15:28:24;9.32;;;2.15;;